Terminal Aerodrome Forecast
Issued by NWS

Home | Current Version | Previous Version | Text Only | Print | Product List | Glossary On
Versions: 1 2 3 4 5 6 7 8 9 10 11 12 13 14
000
FTUS43 KGRB 010700 AAA
TAFCWA
TAF AMD
KCWA 010707Z 0107/0206 VRB02KT 4SM BR SCT080
      TEMPO 0107/0111 1SM BR SCT002
     FM011300 26004KT P6SM SCT080
      TEMPO 0118/0122 -SHRA BKN080
      AMD LTD TO CLD VIS AND WIND TIL 011200=

USA.gov is the U.S. government's official web portal to all federal, state and local government web resources and services.